createdAt,value
2023-03-04T00:00:33.608Z,942.57
2023-03-04T00:01:33.691Z,942.58
2023-03-04T00:02:33.591Z,942.56
2023-03-04T00:03:33.551Z,942.59
2023-03-04T00:04:33.583Z,942.58
2023-03-04T00:05:33.601Z,942.59
2023-03-04T00:06:33.533Z,942.57
2023-03-04T00:07:33.589Z,942.59
2023-03-04T00:08:33.500Z,942.61
2023-03-04T00:09:33.522Z,942.60
2023-03-04T00:10:33.507Z,942.58
2023-03-04T00:11:33.485Z,942.58
2023-03-04T00:12:33.458Z,942.62
2023-03-04T00:13:33.458Z,942.59
2023-03-04T00:14:33.463Z,942.60
2023-03-04T00:15:33.460Z,942.62
2023-03-04T00:16:33.463Z,942.61
2023-03-04T00:17:33.455Z,942.61
2023-03-04T00:18:33.410Z,942.58
2023-03-04T00:19:33.430Z,942.63
2023-03-04T00:20:33.424Z,942.64
2023-03-04T00:21:33.422Z,942.65
2023-03-04T00:22:33.358Z,942.67
2023-03-04T00:23:33.370Z,942.67
2023-03-04T00:24:33.351Z,942.69
2023-03-04T00:25:33.338Z,942.68
2023-03-04T00:26:33.822Z,942.68
2023-03-04T00:27:33.347Z,942.66
2023-03-04T00:28:33.342Z,942.68
2023-03-04T00:29:33.294Z,942.66
2023-03-04T00:30:33.305Z,942.64
2023-03-04T00:31:33.408Z,942.68
2023-03-04T00:32:33.405Z,942.67
2023-03-04T00:33:33.257Z,942.69
2023-03-04T00:34:33.281Z,942.67
2023-03-04T00:35:33.313Z,942.69
2023-03-04T00:36:33.256Z,942.69
2023-03-04T00:37:33.229Z,942.68
2023-03-04T00:38:33.221Z,942.68
2023-03-04T00:39:33.293Z,942.69
2023-03-04T00:40:33.189Z,942.72
2023-03-04T00:41:33.229Z,942.71
2023-03-04T00:42:33.164Z,942.66
2023-03-04T00:43:33.158Z,942.70
2023-03-04T00:44:33.147Z,942.66
2023-03-04T00:45:33.131Z,942.69
2023-03-04T00:46:33.170Z,942.68
2023-03-04T00:47:33.153Z,942.71
2023-03-04T00:48:33.157Z,942.70
2023-03-04T00:49:33.089Z,942.69
2023-03-04T00:50:33.100Z,942.71
2023-03-04T00:51:33.189Z,942.72
2023-03-04T00:52:33.065Z,942.70
2023-03-04T00:53:33.133Z,942.76
2023-03-04T00:54:33.035Z,942.77
2023-03-04T00:55:33.094Z,942.74
2023-03-04T00:56:33.044Z,942.74
2023-03-04T00:57:33.009Z,942.74
2023-03-04T00:58:33.035Z,942.72
2023-03-04T00:59:33.039Z,942.66
2023-03-04T01:00:32.983Z,942.66
2023-03-04T01:01:32.988Z,942.67
2023-03-04T01:02:33.017Z,942.68
2023-03-04T01:03:32.982Z,942.68
2023-03-04T01:04:32.980Z,942.66
2023-03-04T01:05:32.933Z,942.67
2023-03-04T01:06:32.986Z,942.66
2023-03-04T01:07:34.004Z,942.66
2023-03-04T01:08:32.944Z,942.59
2023-03-04T01:09:32.921Z,942.61
2023-03-04T01:10:32.909Z,942.60
2023-03-04T01:11:32.897Z,942.61
2023-03-04T01:12:32.892Z,942.57
2023-03-04T01:13:32.846Z,942.53
2023-03-04T01:14:32.839Z,942.53
2023-03-04T01:15:32.834Z,942.49
2023-03-04T01:16:32.901Z,942.46
2023-03-04T01:17:32.874Z,942.47
2023-03-04T01:18:32.837Z,942.48
2023-03-04T01:19:32.782Z,942.49
2023-03-04T01:20:32.833Z,942.45
2023-03-04T01:21:32.802Z,942.44
2023-03-04T01:22:32.761Z,942.45
2023-03-04T01:23:32.806Z,942.48
2023-03-04T01:24:32.734Z,942.46
2023-03-04T01:25:32.750Z,942.35
2023-03-04T01:26:32.776Z,942.39
2023-03-04T01:27:32.708Z,942.38
2023-03-04T01:28:32.704Z,942.34
2023-03-04T01:29:32.702Z,942.35
2023-03-04T01:30:32.717Z,942.34
2023-03-04T01:31:32.658Z,942.34
2023-03-04T01:32:32.842Z,942.32
2023-03-04T01:33:32.646Z,942.32
2023-03-04T01:34:32.699Z,942.33
2023-03-04T01:35:32.639Z,942.29
2023-03-04T01:36:32.662Z,942.35
2023-03-04T01:37:32.604Z,942.36
2023-03-04T01:38:32.664Z,942.33
2023-03-04T01:39:32.608Z,942.33
2023-03-04T01:40:32.628Z,942.34
2023-03-04T01:41:32.611Z,942.33
2023-03-04T01:42:32.567Z,942.31
2023-03-04T01:43:32.565Z,942.30
2023-03-04T01:44:32.559Z,942.27
2023-03-04T01:45:32.567Z,942.35
2023-03-04T01:46:32.590Z,942.29
2023-03-04T01:47:32.513Z,942.26
2023-03-04T01:48:32.501Z,942.23
2023-03-04T01:49:32.495Z,942.25
2023-03-04T01:50:32.476Z,942.23
2023-03-04T01:51:32.505Z,942.25
2023-03-04T01:52:32.560Z,942.28
2023-03-04T01:53:32.467Z,942.29
2023-03-04T01:54:32.446Z,942.26
2023-03-04T01:55:32.437Z,942.28
2023-03-04T01:56:32.447Z,942.28
2023-03-04T01:57:32.471Z,942.23
2023-03-04T01:58:32.422Z,942.19
2023-03-04T01:59:32.386Z,942.22
2023-03-04T02:00:32.466Z,942.20
2023-03-04T02:01:32.431Z,942.20
2023-03-04T02:02:32.375Z,942.19
2023-03-04T02:03:32.383Z,942.15
2023-03-04T02:04:32.492Z,942.15
2023-03-04T02:05:32.328Z,942.14
2023-03-04T02:06:32.378Z,942.15
2023-03-04T02:07:32.316Z,942.13
2023-03-04T02:08:32.313Z,942.07
2023-03-04T02:09:32.291Z,942.15
2023-03-04T02:10:32.310Z,942.12
2023-03-04T02:11:32.309Z,942.12
2023-03-04T02:12:32.261Z,942.11
2023-03-04T02:13:32.268Z,942.09
2023-03-04T02:14:32.273Z,942.10
2023-03-04T02:15:32.307Z,942.11
2023-03-04T02:16:32.268Z,942.13
2023-03-04T02:17:32.216Z,942.12
2023-03-04T02:18:32.236Z,942.11
2023-03-04T02:19:32.188Z,942.13
2023-03-04T02:20:32.191Z,942.09
2023-03-04T02:21:32.201Z,942.06
2023-03-04T02:22:32.168Z,942.03
2023-03-04T02:23:32.208Z,942.03
2023-03-04T02:24:32.141Z,942.02
2023-03-04T02:25:32.170Z,942.02
2023-03-04T02:26:32.142Z,942.00
2023-03-04T02:27:32.174Z,941.99
2023-03-04T02:28:32.118Z,941.97
2023-03-04T02:29:32.134Z,941.99
2023-03-04T02:30:32.139Z,941.96
2023-03-04T02:31:32.101Z,941.96
2023-03-04T02:32:32.179Z,941.94
2023-03-04T02:33:32.048Z,941.95
2023-03-04T02:34:32.069Z,942.01
2023-03-04T02:35:32.105Z,941.99
2023-03-04T02:36:32.079Z,941.97
2023-03-04T02:37:32.022Z,941.98
2023-03-04T02:38:32.019Z,941.99
2023-03-04T02:39:31.995Z,941.95
2023-03-04T02:40:32.050Z,941.97
2023-03-04T02:41:31.961Z,941.94
2023-03-04T02:42:31.989Z,941.95
2023-03-04T02:43:31.959Z,941.99
2023-03-04T02:44:31.946Z,942.03
2023-03-04T02:45:32.009Z,942.00
2023-03-04T02:46:43.342Z,942.03
2023-03-04T02:47:31.905Z,942.04
2023-03-04T02:48:31.914Z,942.01
2023-03-04T02:49:31.957Z,942.00
2023-03-04T02:50:31.919Z,942.06
2023-03-04T02:51:31.916Z,942.06
2023-03-04T02:52:31.870Z,942.06
2023-03-04T02:53:31.869Z,942.08
2023-03-04T02:54:31.845Z,942.09
2023-03-04T02:55:31.845Z,942.08
2023-03-04T02:56:31.861Z,942.07
2023-03-04T02:57:31.808Z,942.12
2023-03-04T02:58:31.842Z,942.11
2023-03-04T02:59:31.823Z,942.13
2023-03-04T03:00:31.860Z,942.09
2023-03-04T03:01:31.811Z,942.07
2023-03-04T03:02:31.807Z,942.07
2023-03-04T03:03:31.756Z,942.07
2023-03-04T03:04:31.766Z,942.03
2023-03-04T03:05:31.837Z,942.08
2023-03-04T03:06:31.741Z,942.06
2023-03-04T03:07:31.769Z,942.05
2023-03-04T03:08:31.720Z,942.02
2023-03-04T03:09:31.690Z,942.03
2023-03-04T03:10:31.683Z,942.02
2023-03-04T03:11:31.681Z,942.05
2023-03-04T03:12:31.672Z,942.04
2023-03-04T03:13:31.732Z,942.05
2023-03-04T03:14:31.645Z,942.05
2023-03-04T03:15:31.638Z,942.04
2023-03-04T03:16:31.668Z,942.02
2023-03-04T03:17:31.638Z,942.05
2023-03-04T03:18:31.608Z,942.08
2023-03-04T03:19:31.611Z,942.05
2023-03-04T03:20:31.584Z,942.08
2023-03-04T03:21:31.596Z,942.06
2023-03-04T03:22:31.569Z,942.09
2023-03-04T03:23:31.546Z,942.11
2023-03-04T03:24:31.544Z,942.08
2023-03-04T03:25:31.542Z,942.09
2023-03-04T03:26:31.576Z,942.07
2023-03-04T03:27:31.526Z,942.07
2023-03-04T03:28:31.509Z,942.04
2023-03-04T03:29:31.495Z,941.98
2023-03-04T03:30:31.537Z,942.03
2023-03-04T03:31:31.550Z,941.98
2023-03-04T03:32:31.873Z,942.02
2023-03-04T03:33:31.477Z,942.03
2023-03-04T03:34:31.439Z,942.04
2023-03-04T03:35:31.504Z,942.01
2023-03-04T03:36:31.455Z,942.02
2023-03-04T03:37:31.498Z,942.01
2023-03-04T03:38:31.811Z,942.03
2023-03-04T03:39:31.504Z,942.04
2023-03-04T03:40:31.378Z,942.04
2023-03-04T03:41:31.384Z,942.03
2023-03-04T03:42:31.378Z,941.99
2023-03-04T03:43:31.355Z,942.02
2023-03-04T03:44:31.328Z,942.01
2023-03-04T03:45:31.460Z,941.96
2023-03-04T03:46:31.369Z,942.03
2023-03-04T03:47:31.307Z,942.04
2023-03-04T03:48:31.351Z,942.04
2023-03-04T03:49:31.334Z,942.03
2023-03-04T03:50:31.298Z,942.02
2023-03-04T03:51:31.291Z,942.06
2023-03-04T03:52:31.283Z,942.02
2023-03-04T03:53:31.276Z,941.98
2023-03-04T03:54:31.235Z,942.04
2023-03-04T03:55:31.223Z,942.00
2023-03-04T03:56:31.218Z,941.99
2023-03-04T03:57:31.244Z,942.05
2023-03-04T03:58:31.217Z,941.98
2023-03-04T03:59:31.190Z,942.07
2023-03-04T04:00:31.177Z,942.06
2023-03-04T04:01:31.171Z,942.11
2023-03-04T04:02:31.315Z,942.10
2023-03-04T04:03:31.193Z,942.10
2023-03-04T04:04:31.151Z,942.07
2023-03-04T04:05:31.151Z,942.07
2023-03-04T04:06:31.127Z,942.10
2023-03-04T04:07:31.114Z,942.07
2023-03-04T04:08:31.135Z,942.13
2023-03-04T04:09:31.115Z,942.14
2023-03-04T04:10:31.085Z,942.12
2023-03-04T04:11:31.089Z,942.08
2023-03-04T04:12:31.059Z,942.10
2023-03-04T04:13:31.061Z,942.08
2023-03-04T04:14:31.073Z,942.07
2023-03-04T04:15:31.072Z,942.06
2023-03-04T04:16:35.822Z,942.06
2023-03-04T04:17:31.015Z,942.05
2023-03-04T04:18:38.597Z,942.08
2023-03-04T04:19:30.986Z,942.07
2023-03-04T04:20:30.978Z,942.09
2023-03-04T04:21:31.026Z,942.09
2023-03-04T04:22:30.971Z,942.09
2023-03-04T04:23:30.944Z,942.00
2023-03-04T04:24:30.964Z,942.04
2023-03-04T04:25:30.931Z,941.99
2023-03-04T04:26:30.927Z,942.12
2023-03-04T04:27:31.354Z,942.07
2023-03-04T04:28:30.921Z,942.10
2023-03-04T04:29:30.937Z,942.08
2023-03-04T04:30:30.941Z,942.08
2023-03-04T04:31:30.869Z,942.07
2023-03-04T04:32:30.902Z,942.14
2023-03-04T04:33:30.847Z,942.13
2023-03-04T04:34:30.853Z,942.15
2023-03-04T04:35:30.892Z,942.13
2023-03-04T04:36:30.812Z,942.11
2023-03-04T04:37:30.869Z,942.12
2023-03-04T04:38:30.802Z,942.08
2023-03-04T04:39:30.786Z,942.10
2023-03-04T04:40:30.782Z,942.07
2023-03-04T04:41:30.766Z,942.06
2023-03-04T04:42:30.854Z,942.08
2023-03-04T04:43:30.791Z,942.09
2023-03-04T04:44:30.741Z,942.04
2023-03-04T04:45:30.731Z,942.06
2023-03-04T04:46:35.378Z,942.05
2023-03-04T04:47:30.697Z,942.06
2023-03-04T04:48:30.732Z,942.05
2023-03-04T04:49:30.688Z,942.03
2023-03-04T04:50:32.860Z,942.05
2023-03-04T04:51:30.664Z,942.03
2023-03-04T04:52:30.658Z,942.01
2023-03-04T04:53:30.658Z,942.04
2023-03-04T04:54:30.676Z,942.04
2023-03-04T04:55:30.638Z,942.04
2023-03-04T04:56:30.648Z,942.04
2023-03-04T04:57:30.606Z,942.03
2023-03-04T04:58:30.600Z,942.05
2023-03-04T04:59:30.581Z,942.08
2023-03-04T05:00:30.624Z,942.08
2023-03-04T05:01:30.668Z,942.08
2023-03-04T05:02:30.593Z,942.04
2023-03-04T05:03:30.565Z,942.03
2023-03-04T05:04:30.572Z,942.05
2023-03-04T05:05:30.539Z,942.02
2023-03-04T05:06:30.526Z,942.06
2023-03-04T05:07:30.516Z,941.99
2023-03-04T05:08:30.502Z,942.01
2023-03-04T05:09:30.580Z,942.07
2023-03-04T05:10:30.485Z,942.04
2023-03-04T05:11:30.511Z,942.02
2023-03-04T05:12:30.471Z,942.02
2023-03-04T05:13:30.456Z,942.00
2023-03-04T05:14:30.446Z,942.02
2023-03-04T05:15:30.553Z,942.04
2023-03-04T05:16:35.333Z,942.08
2023-03-04T05:17:30.450Z,942.06
2023-03-04T05:18:30.404Z,942.03
2023-03-04T05:19:30.411Z,942.02
2023-03-04T05:20:30.391Z,942.01
2023-03-04T05:21:30.408Z,942.05
2023-03-04T05:22:30.369Z,942.07
2023-03-04T05:23:30.398Z,942.07
2023-03-04T05:24:30.342Z,942.03
2023-03-04T05:25:30.356Z,942.02
2023-03-04T05:26:30.345Z,942.02
2023-03-04T05:27:30.342Z,942.05
2023-03-04T05:28:30.315Z,941.99
2023-03-04T05:29:30.329Z,941.95
2023-03-04T05:30:30.338Z,941.98
2023-03-04T05:31:30.314Z,942.03
2023-03-04T05:32:30.302Z,942.03
2023-03-04T05:33:30.313Z,941.99
2023-03-04T05:34:30.284Z,942.01
2023-03-04T05:35:30.279Z,942.06
2023-03-04T05:36:30.225Z,942.00
2023-03-04T05:37:30.244Z,942.02
2023-03-04T05:38:30.215Z,942.07
2023-03-04T05:39:30.211Z,942.05
2023-03-04T05:40:30.206Z,942.05
2023-03-04T05:41:30.215Z,942.00
2023-03-04T05:42:30.223Z,942.05
2023-03-04T05:43:30.179Z,942.04
2023-03-04T05:44:30.148Z,942.03
2023-03-04T05:45:30.144Z,942.06
2023-03-04T05:46:33.148Z,942.02
2023-03-04T05:47:30.228Z,942.03
2023-03-04T05:48:30.142Z,942.08
2023-03-04T05:49:30.134Z,942.09
2023-03-04T05:50:30.091Z,942.06
2023-03-04T05:51:30.089Z,942.12
2023-03-04T05:52:30.071Z,942.11
2023-03-04T05:53:30.087Z,942.13
2023-03-04T05:54:30.087Z,942.13
2023-03-04T05:55:30.072Z,942.14
2023-03-04T05:56:30.030Z,942.18
2023-03-04T05:57:32.385Z,942.17
2023-03-04T05:58:30.030Z,942.17
2023-03-04T05:59:30.005Z,942.19
2023-03-04T06:00:30.058Z,942.15
2023-03-04T06:01:30.041Z,942.13
2023-03-04T06:02:30.052Z,942.18
2023-03-04T06:03:30.027Z,942.19
2023-03-04T06:04:29.960Z,942.18
2023-03-04T06:05:29.975Z,942.21
2023-03-04T06:06:29.984Z,942.22
2023-03-04T06:07:29.940Z,942.25
2023-03-04T06:08:29.948Z,942.23
2023-03-04T06:09:29.934Z,942.23
2023-03-04T06:10:29.894Z,942.22
2023-03-04T06:11:29.887Z,942.25
2023-03-04T06:12:29.874Z,942.25
2023-03-04T06:13:29.976Z,942.27
2023-03-04T06:14:29.930Z,942.27
2023-03-04T06:15:29.936Z,942.32
2023-03-04T06:16:30.026Z,942.30
2023-03-04T06:17:29.839Z,942.27
2023-03-04T06:18:29.844Z,942.31
2023-03-04T06:19:29.849Z,942.29
2023-03-04T06:20:29.815Z,942.30
2023-03-04T06:21:29.806Z,942.32
2023-03-04T06:22:29.774Z,942.32
2023-03-04T06:23:29.776Z,942.33
2023-03-04T06:24:29.745Z,942.36
2023-03-04T06:25:29.840Z,942.37
2023-03-04T06:26:29.745Z,942.40
2023-03-04T06:27:29.764Z,942.35
2023-03-04T06:28:29.742Z,942.38
2023-03-04T06:29:29.808Z,942.41
2023-03-04T06:30:29.777Z,942.40
2023-03-04T06:31:29.762Z,942.39
2023-03-04T06:32:29.728Z,942.38
2023-03-04T06:33:29.705Z,942.42
2023-03-04T06:34:29.697Z,942.44
2023-03-04T06:35:29.651Z,942.44
2023-03-04T06:36:29.631Z,942.43
2023-03-04T06:37:29.652Z,942.43
2023-03-04T06:38:29.641Z,942.41
2023-03-04T06:39:29.608Z,942.44
2023-03-04T06:40:29.619Z,942.40
2023-03-04T06:41:29.590Z,942.40
2023-03-04T06:42:29.566Z,942.47
2023-03-04T06:43:29.567Z,942.42
2023-03-04T06:44:29.556Z,942.40
2023-03-04T06:45:29.606Z,942.42
2023-03-04T06:46:34.428Z,942.43
2023-03-04T06:47:29.565Z,942.47
2023-03-04T06:48:29.512Z,942.41
2023-03-04T06:49:29.549Z,942.40
2023-03-04T06:50:29.508Z,942.41
2023-03-04T06:51:29.484Z,942.47
2023-03-04T06:52:29.478Z,942.48
2023-03-04T06:53:29.481Z,942.51
2023-03-04T06:54:29.475Z,942.49
2023-03-04T06:55:29.443Z,942.51
2023-03-04T06:56:29.512Z,942.46
2023-03-04T06:57:29.429Z,942.53
2023-03-04T06:58:29.456Z,942.55
2023-03-04T06:59:29.486Z,942.51
2023-03-04T07:00:29.448Z,942.50
2023-03-04T07:01:29.486Z,942.51
2023-03-04T07:02:29.426Z,942.56
2023-03-04T07:03:29.377Z,942.51
2023-03-04T07:04:29.348Z,942.56
2023-03-04T07:05:29.343Z,942.53
2023-03-04T07:06:29.397Z,942.50
2023-03-04T07:07:29.332Z,942.59
2023-03-04T07:08:29.333Z,942.48
2023-03-04T07:09:29.311Z,942.50
2023-03-04T07:10:29.305Z,942.50
2023-03-04T07:11:29.299Z,942.56
2023-03-04T07:12:29.369Z,942.52
2023-03-04T07:13:29.294Z,942.47
2023-03-04T07:14:29.368Z,942.50
2023-03-04T07:15:29.255Z,942.46
2023-03-04T07:16:29.305Z,942.51
2023-03-04T07:17:29.281Z,942.45
2023-03-04T07:18:29.274Z,942.50
2023-03-04T07:19:29.980Z,942.50
2023-03-04T07:20:31.685Z,942.51
2023-03-04T07:21:29.249Z,942.52
2023-03-04T07:22:29.192Z,942.48
2023-03-04T07:23:29.300Z,942.53
2023-03-04T07:24:29.217Z,942.55
2023-03-04T07:25:29.162Z,942.51
2023-03-04T07:26:29.146Z,942.55
2023-03-04T07:27:29.125Z,942.52
2023-03-04T07:28:29.269Z,942.51
2023-03-04T07:29:29.144Z,942.50
2023-03-04T07:30:29.175Z,942.49
2023-03-04T07:31:29.176Z,942.51
2023-03-04T07:32:29.207Z,942.50
2023-03-04T07:33:29.102Z,942.51
2023-03-04T07:34:29.060Z,942.51
2023-03-04T07:35:29.091Z,942.50
2023-03-04T07:36:29.060Z,942.49
2023-03-04T07:37:29.077Z,942.49
2023-03-04T07:38:29.095Z,942.51
2023-03-04T07:39:29.028Z,942.53
2023-03-04T07:40:29.136Z,942.45
2023-03-04T07:41:28.981Z,942.45
2023-03-04T07:42:29.021Z,942.48
2023-03-04T07:43:29.000Z,942.50
2023-03-04T07:44:28.960Z,942.42
2023-03-04T07:45:28.984Z,942.46
2023-03-04T07:46:29.014Z,942.46
2023-03-04T07:47:28.937Z,942.48
2023-03-04T07:48:28.992Z,942.47
2023-03-04T07:49:28.918Z,942.56
2023-03-04T07:50:28.898Z,942.50
2023-03-04T07:51:28.925Z,942.51
2023-03-04T07:52:28.902Z,942.50
2023-03-04T07:53:28.912Z,942.53
2023-03-04T07:54:28.923Z,942.55
2023-03-04T07:55:28.844Z,942.52
2023-03-04T07:56:28.840Z,942.57
2023-03-04T07:57:28.817Z,942.56
2023-03-04T07:58:28.809Z,942.55
2023-03-04T07:59:28.859Z,942.56
2023-03-04T08:00:28.867Z,942.60
2023-03-04T08:01:28.789Z,942.62
2023-03-04T08:02:28.793Z,942.56
2023-03-04T08:03:28.782Z,942.63
2023-03-04T08:04:28.879Z,942.61
2023-03-04T08:05:28.778Z,942.57
2023-03-04T08:06:28.782Z,942.58
2023-03-04T08:07:28.793Z,942.55
2023-03-04T08:08:28.766Z,942.54
2023-03-04T08:09:28.698Z,942.53
2023-03-04T08:10:28.752Z,942.55
2023-03-04T08:11:28.701Z,942.54
2023-03-04T08:12:28.708Z,942.47
2023-03-04T08:13:28.666Z,942.50
2023-03-04T08:14:28.654Z,942.44
2023-03-04T08:15:28.664Z,942.44
2023-03-04T08:16:28.650Z,942.48
2023-03-04T08:17:28.627Z,942.43
2023-03-04T08:18:28.620Z,942.45
2023-03-04T08:19:28.593Z,942.46
2023-03-04T08:20:28.573Z,942.47
2023-03-04T08:21:28.596Z,942.48
2023-03-04T08:22:28.561Z,942.45
2023-03-04T08:23:28.689Z,942.41
2023-03-04T08:24:28.540Z,942.43
2023-03-04T08:25:28.532Z,942.44
2023-03-04T08:26:28.562Z,942.46
2023-03-04T08:27:28.507Z,942.47
2023-03-04T08:28:28.507Z,942.44
2023-03-04T08:29:28.590Z,942.50
2023-03-04T08:30:28.476Z,942.50
2023-03-04T08:31:28.568Z,942.47
2023-03-04T08:32:28.535Z,942.48
2023-03-04T08:33:28.461Z,942.49
2023-03-04T08:34:28.455Z,942.48
2023-03-04T08:35:28.454Z,942.47
2023-03-04T08:36:28.470Z,942.46
2023-03-04T08:37:28.461Z,942.47
2023-03-04T08:38:28.398Z,942.55
2023-03-04T08:39:28.385Z,942.52
2023-03-04T08:40:28.361Z,942.54
2023-03-04T08:41:28.406Z,942.49
2023-03-04T08:42:28.422Z,942.48
2023-03-04T08:43:28.335Z,942.50
2023-03-04T08:44:28.327Z,942.51
2023-03-04T08:45:28.318Z,942.48
2023-03-04T08:46:28.440Z,942.47
2023-03-04T08:47:28.308Z,942.53
2023-03-04T08:48:28.291Z,942.47
2023-03-04T08:49:28.297Z,942.49
2023-03-04T08:50:28.280Z,942.52
2023-03-04T08:51:28.304Z,942.47
2023-03-04T08:52:28.379Z,942.49
2023-03-04T08:53:28.291Z,942.48
2023-03-04T08:54:28.267Z,942.49
2023-03-04T08:55:28.227Z,942.46
2023-03-04T08:56:28.205Z,942.44
2023-03-04T08:57:28.200Z,942.47
2023-03-04T08:58:28.221Z,942.51
2023-03-04T08:59:28.184Z,942.46
2023-03-04T09:00:28.184Z,942.50
2023-03-04T09:01:28.291Z,942.46
2023-03-04T09:02:28.167Z,942.45
2023-03-04T09:03:28.218Z,942.47
2023-03-04T09:04:28.122Z,942.48
2023-03-04T09:05:28.115Z,942.49
2023-03-04T09:06:28.105Z,942.45
2023-03-04T09:07:28.105Z,942.41
2023-03-04T09:08:28.368Z,942.43
2023-03-04T09:09:28.089Z,942.43
2023-03-04T09:10:28.073Z,942.43
2023-03-04T09:11:28.049Z,942.44
2023-03-04T09:12:28.057Z,942.39
2023-03-04T09:13:28.035Z,942.37
2023-03-04T09:14:28.048Z,942.35
2023-03-04T09:15:28.013Z,942.33
2023-03-04T09:16:28.213Z,942.37
2023-03-04T09:17:27.986Z,942.32
2023-03-04T09:18:28.000Z,942.31
2023-03-04T09:19:35.499Z,942.36
2023-03-04T09:20:27.965Z,942.32
2023-03-04T09:21:27.951Z,942.33
2023-03-04T09:22:27.934Z,942.31
2023-03-04T09:23:27.950Z,942.30
2023-03-04T09:24:27.916Z,942.26
2023-03-04T09:25:27.934Z,942.30
2023-03-04T09:26:27.910Z,942.28
2023-03-04T09:27:27.880Z,942.30
2023-03-04T09:28:27.930Z,942.22
2023-03-04T09:29:27.866Z,942.22
2023-03-04T09:30:29.060Z,942.22
2023-03-04T09:31:27.886Z,942.22
2023-03-04T09:32:27.849Z,942.23
2023-03-04T09:33:27.821Z,942.23
2023-03-04T09:34:27.850Z,942.29
2023-03-04T09:35:27.868Z,942.28
2023-03-04T09:36:27.824Z,942.26
2023-03-04T09:37:27.777Z,942.26
2023-03-04T09:38:27.770Z,942.28
2023-03-04T09:39:27.880Z,942.31
2023-03-04T09:40:27.742Z,942.29
2023-03-04T09:41:27.757Z,942.22
2023-03-04T09:42:27.744Z,942.23
2023-03-04T09:43:27.716Z,942.21
2023-03-04T09:44:28.358Z,942.23
2023-03-04T09:45:27.824Z,942.24
2023-03-04T09:46:27.719Z,942.24
2023-03-04T09:47:27.675Z,942.22
2023-03-04T09:48:27.716Z,942.24
2023-03-04T09:49:27.648Z,942.24
2023-03-04T09:50:27.649Z,942.22
2023-03-04T09:51:27.628Z,942.24
2023-03-04T09:52:27.620Z,942.20
2023-03-04T09:53:27.629Z,942.19
2023-03-04T09:54:27.601Z,942.18
2023-03-04T09:55:27.615Z,942.18
2023-03-04T09:56:27.591Z,942.14
2023-03-04T09:57:27.593Z,942.12
2023-03-04T09:58:27.607Z,942.13
2023-03-04T09:59:27.543Z,942.17
2023-03-04T10:00:27.569Z,942.09
2023-03-04T10:01:27.526Z,941.97
2023-03-04T10:02:27.536Z,942.05
2023-03-04T10:03:27.568Z,942.08
2023-03-04T10:04:27.529Z,941.91
2023-03-04T10:05:27.475Z,941.81
2023-03-04T10:06:27.477Z,941.86
2023-03-04T10:07:27.526Z,941.91
2023-03-04T10:08:27.448Z,941.87
2023-03-04T10:09:27.442Z,941.86
2023-03-04T10:10:27.512Z,941.87
2023-03-04T10:11:27.414Z,941.83
2023-03-04T10:12:27.412Z,941.85
2023-03-04T10:13:27.417Z,941.83
2023-03-04T10:14:27.391Z,941.86
2023-03-04T10:15:27.393Z,941.80
2023-03-04T10:16:27.384Z,941.79
2023-03-04T10:17:27.356Z,941.73
2023-03-04T10:18:27.357Z,941.82
2023-03-04T10:19:27.341Z,941.82
2023-03-04T10:20:27.376Z,941.78
2023-03-04T10:21:27.353Z,941.72
2023-03-04T10:22:27.307Z,941.61
2023-03-04T10:23:27.351Z,941.77
2023-03-04T10:24:27.285Z,941.75
2023-03-04T10:25:27.299Z,941.60
2023-03-04T10:26:27.295Z,941.61
2023-03-04T10:27:27.289Z,941.61
2023-03-04T10:28:27.298Z,941.53
2023-03-04T10:29:27.253Z,941.56
2023-03-04T10:30:27.221Z,941.61
2023-03-04T10:31:27.281Z,941.55
2023-03-04T10:32:27.294Z,941.55
2023-03-04T10:33:27.224Z,941.51
2023-03-04T10:34:27.167Z,941.53
2023-03-04T10:35:27.163Z,941.48
2023-03-04T10:36:27.138Z,941.45
2023-03-04T10:37:27.123Z,941.51
2023-03-04T10:38:27.148Z,941.47
2023-03-04T10:39:27.144Z,941.51
2023-03-04T10:40:27.095Z,941.47
2023-03-04T10:41:27.088Z,941.52
2023-03-04T10:42:27.202Z,941.53
2023-03-04T10:43:27.068Z,941.43
2023-03-04T10:44:27.081Z,941.46
2023-03-04T10:45:27.085Z,941.49
2023-03-04T10:46:27.028Z,941.49
2023-03-04T10:47:27.015Z,941.45
2023-03-04T10:48:27.053Z,941.44
2023-03-04T10:49:27.013Z,941.48
2023-03-04T10:50:27.034Z,941.43
2023-03-04T10:51:26.973Z,941.41
2023-03-04T10:52:26.973Z,941.45
2023-03-04T10:53:26.953Z,941.47
2023-03-04T10:54:26.968Z,941.43
2023-03-04T10:55:27.004Z,941.33
2023-03-04T10:56:26.937Z,941.37
2023-03-04T10:57:26.993Z,941.39
2023-03-04T10:58:26.902Z,941.37
2023-03-04T10:59:26.916Z,941.28
2023-03-04T11:00:26.937Z,941.23
2023-03-04T11:01:26.973Z,941.24
2023-03-04T11:02:26.972Z,941.24
2023-03-04T11:03:29.411Z,941.22
2023-03-04T11:04:26.863Z,941.22
2023-03-04T11:05:26.842Z,941.21
2023-03-04T11:06:26.828Z,941.24
2023-03-04T11:07:26.817Z,941.21
2023-03-04T11:08:26.828Z,941.22
2023-03-04T11:09:26.934Z,941.21
2023-03-04T11:10:26.860Z,941.22
2023-03-04T11:11:26.766Z,941.27
2023-03-04T11:12:26.768Z,941.20
2023-03-04T11:13:26.737Z,941.21
2023-03-04T11:14:26.764Z,941.21
2023-03-04T11:15:26.716Z,941.19
2023-03-04T11:16:31.517Z,941.25
2023-03-04T11:17:26.764Z,941.28
2023-03-04T11:18:26.692Z,941.25
2023-03-04T11:19:26.689Z,941.27
2023-03-04T11:20:26.694Z,941.32
2023-03-04T11:21:26.646Z,941.33
2023-03-04T11:22:26.778Z,941.30
2023-03-04T11:23:26.652Z,941.31
2023-03-04T11:24:29.075Z,941.31
2023-03-04T11:25:26.698Z,941.38
2023-03-04T11:26:26.618Z,941.23
2023-03-04T11:27:26.680Z,941.19
2023-03-04T11:28:26.617Z,941.10
2023-03-04T11:29:26.562Z,941.18
2023-03-04T11:30:26.559Z,941.17
2023-03-04T11:31:26.579Z,941.19
2023-03-04T11:32:26.671Z,941.14
2023-03-04T11:33:26.516Z,941.21
2023-03-04T11:34:26.508Z,941.20
2023-03-04T11:35:26.607Z,941.20
2023-03-04T11:36:26.564Z,941.21
2023-03-04T11:37:26.484Z,941.23
2023-03-04T11:38:26.480Z,941.20
2023-03-04T11:39:26.472Z,941.22
2023-03-04T11:40:26.479Z,941.16
2023-03-04T11:41:26.472Z,941.16
2023-03-04T11:42:26.499Z,941.20
2023-03-04T11:43:26.442Z,941.21
2023-03-04T11:44:26.434Z,941.24
2023-03-04T11:45:29.757Z,941.21
2023-03-04T11:46:26.464Z,941.18
2023-03-04T11:47:26.456Z,941.19
2023-03-04T11:48:26.446Z,941.16
2023-03-04T11:49:26.375Z,941.19
2023-03-04T11:50:26.367Z,941.19
2023-03-04T11:51:26.374Z,941.18
2023-03-04T11:52:26.474Z,941.17
2023-03-04T11:53:26.354Z,941.17
2023-03-04T11:54:26.384Z,941.22
2023-03-04T11:55:26.374Z,941.22
2023-03-04T11:56:26.379Z,941.22
2023-03-04T11:57:26.313Z,941.23
2023-03-04T11:58:26.273Z,941.20
2023-03-04T11:59:26.343Z,941.22
2023-03-04T12:00:26.284Z,941.23
2023-03-04T12:01:26.248Z,941.19
2023-03-04T12:02:26.231Z,941.15
2023-03-04T12:03:26.285Z,941.18
2023-03-04T12:04:26.458Z,941.18
2023-03-04T12:05:26.296Z,941.13
2023-03-04T12:06:26.212Z,941.12
2023-03-04T12:07:26.179Z,941.15
2023-03-04T12:08:26.167Z,941.14
2023-03-04T12:09:26.183Z,941.12
2023-03-04T12:10:26.196Z,941.12
2023-03-04T12:11:26.189Z,941.11
2023-03-04T12:12:26.154Z,941.09
2023-03-04T12:13:26.109Z,941.08
2023-03-04T12:14:26.131Z,940.97
2023-03-04T12:15:26.228Z,941.03
2023-03-04T12:16:26.123Z,941.05
2023-03-04T12:17:26.082Z,941.09
2023-03-04T12:18:26.085Z,941.10
2023-03-04T12:19:26.071Z,940.97
2023-03-04T12:20:26.061Z,940.92
2023-03-04T12:21:26.042Z,940.91
2023-03-04T12:22:26.035Z,940.87
2023-03-04T12:23:26.037Z,940.89
2023-03-04T12:24:26.060Z,940.83
2023-03-04T12:25:26.016Z,940.87
2023-03-04T12:26:25.996Z,940.92
2023-03-04T12:27:25.970Z,940.90
2023-03-04T12:28:25.974Z,940.78